sensor_id;sensor_type;location;lat;lon;timestamp;pressure;altitude;pressure_sealevel;temperature;humidity
34328;BME280;20588;48.840;10.064;2024-03-25T00:00:10;95658.91;;;4.32;nan
34328;BME280;20588;48.840;10.064;2024-03-25T00:02:37;95667.72;;;4.36;nan
34328;BME280;20588;48.840;10.064;2024-03-25T00:05:04;95667.72;;;4.36;nan
34328;BME280;20588;48.840;10.064;2024-03-25T00:07:31;95658.94;;;4.39;nan
34328;BME280;20588;48.840;10.064;2024-03-25T00:09:58;95667.00;;;4.42;nan
34328;BME280;20588;48.840;10.064;2024-03-25T00:12:25;95661.28;;;4.40;nan
34328;BME280;20588;48.840;10.064;2024-03-25T00:14:52;95660.31;;;4.41;nan
34328;BME280;20588;48.840;10.064;2024-03-25T00:17:18;95662.09;;;4.41;nan
34328;BME280;20588;48.840;10.064;2024-03-25T00:19:46;95662.84;;;4.41;nan
34328;BME280;20588;48.840;10.064;2024-03-25T00:22:17;95664.63;;;4.41;nan
34328;BME280;20588;48.840;10.064;2024-03-25T00:24:43;95659.72;;;4.39;nan
34328;BME280;20588;48.840;10.064;2024-03-25T00:27:09;95658.94;;;4.39;nan
34328;BME280;20588;48.840;10.064;2024-03-25T00:29:35;95661.91;;;4.42;nan
34328;BME280;20588;48.840;10.064;2024-03-25T00:32:01;95663.03;;;4.40;nan
34328;BME280;20588;48.840;10.064;2024-03-25T00:34:27;95651.88;;;4.34;nan
34328;BME280;20588;48.840;10.064;2024-03-25T00:36:53;95646.97;;;4.39;nan
34328;BME280;20588;48.840;10.064;2024-03-25T00:39:19;95647.97;;;4.38;nan
34328;BME280;20588;48.840;10.064;2024-03-25T00:41:45;95646.97;;;4.39;nan
34328;BME280;20588;48.840;10.064;2024-03-25T00:44:11;95644.63;;;4.31;nan
34328;BME280;20588;48.840;10.064;2024-03-25T00:46:37;95644.81;;;4.30;nan
34328;BME280;20588;48.840;10.064;2024-03-25T00:49:03;95645.00;;;4.28;nan
34328;BME280;20588;48.840;10.064;2024-03-25T00:51:29;95639.91;;;4.22;nan
34328;BME280;20588;48.840;10.064;2024-03-25T00:53:56;95649.88;;;4.23;nan
34328;BME280;20588;48.840;10.064;2024-03-25T00:56:22;95636.38;;;4.16;nan
34328;BME280;20588;48.840;10.064;2024-03-25T00:58:48;95643.41;;;4.14;nan
34328;BME280;20588;48.840;10.064;2024-03-25T01:01:14;95646.56;;;4.16;nan
34328;BME280;20588;48.840;10.064;2024-03-25T01:03:40;95646.75;;;4.15;nan
34328;BME280;20588;48.840;10.064;2024-03-25T01:06:06;95639.88;;;4.09;nan
34328;BME280;20588;48.840;10.064;2024-03-25T01:08:32;95640.81;;;4.08;nan
34328;BME280;20588;48.840;10.064;2024-03-25T01:10:58;95649.44;;;4.07;nan
34328;BME280;20588;48.840;10.064;2024-03-25T01:13:24;95644.38;;;4.13;nan
34328;BME280;20588;48.840;10.064;2024-03-25T01:15:50;95638.13;;;4.16;nan
34328;BME280;20588;48.840;10.064;2024-03-25T01:18:16;95646.94;;;4.13;nan
34328;BME280;20588;48.840;10.064;2024-03-25T01:20:42;95647.88;;;4.12;nan
34328;BME280;20588;48.840;10.064;2024-03-25T01:23:08;95643.41;;;4.14;nan
34328;BME280;20588;48.840;10.064;2024-03-25T01:25:34;95635.16;;;4.12;nan
34328;BME280;20588;48.840;10.064;2024-03-25T01:28:00;95637.72;;;4.12;nan
34328;BME280;20588;48.840;10.064;2024-03-25T01:30:27;95643.19;;;4.09;nan
34328;BME280;20588;48.840;10.064;2024-03-25T01:32:55;95638.88;;;4.10;nan
34328;BME280;20588;48.840;10.064;2024-03-25T01:35:21;95625.56;;;4.08;nan
34328;BME280;20588;48.840;10.064;2024-03-25T01:37:47;95627.34;;;4.07;nan
34328;BME280;20588;48.840;10.064;2024-03-25T01:40:14;95630.28;;;4.04;nan
34328;BME280;20588;48.840;10.064;2024-03-25T01:42:40;95631.03;;;4.05;nan
34328;BME280;20588;48.840;10.064;2024-03-25T01:45:07;95632.81;;;4.04;nan
34328;BME280;20588;48.840;10.064;2024-03-25T01:47:36;95635.34;;;4.04;nan
34328;BME280;20588;48.840;10.064;2024-03-25T01:50:04;95633.78;;;4.03;nan
34328;BME280;20588;48.840;10.064;2024-03-25T01:52:31;95633.19;;;4.01;nan
34328;BME280;20588;48.840;10.064;2024-03-25T01:54:57;95638.28;;;4.01;nan
34328;BME280;20588;48.840;10.064;2024-03-25T01:57:24;95627.50;;;3.99;nan
34328;BME280;20588;48.840;10.064;2024-03-25T01:59:50;95630.25;;;3.98;nan
34328;BME280;20588;48.840;10.064;2024-03-25T02:02:16;95642.59;;;4.01;nan
34328;BME280;20588;48.840;10.064;2024-03-25T02:04:43;95632.41;;;4.01;nan
34328;BME280;20588;48.840;10.064;2024-03-25T02:07:10;95639.44;;;3.99;nan
34328;BME280;20588;48.840;10.064;2024-03-25T02:09:39;95636.13;;;3.98;nan
34328;BME280;20588;48.840;10.064;2024-03-25T02:12:05;95628.50;;;3.98;nan
34328;BME280;20588;48.840;10.064;2024-03-25T02:14:32;95636.88;;;3.99;nan
34328;BME280;20588;48.840;10.064;2024-03-25T02:16:58;95639.25;;;4.00;nan
34328;BME280;20588;48.840;10.064;2024-03-25T02:19:24;95636.88;;;3.99;nan
34328;BME280;20588;48.840;10.064;2024-03-25T02:21:51;95636.13;;;3.98;nan
34328;BME280;20588;48.840;10.064;2024-03-25T02:24:20;95637.69;;;3.99;nan
34328;BME280;20588;48.840;10.064;2024-03-25T02:26:46;95637.88;;;3.98;nan
34328;BME280;20588;48.840;10.064;2024-03-25T02:29:12;95633.16;;;3.95;nan
34328;BME280;20588;48.840;10.064;2024-03-25T02:31:38;95633.16;;;3.95;nan
34328;BME280;20588;48.840;10.064;2024-03-25T02:34:04;95635.91;;;3.93;nan
34328;BME280;20588;48.840;10.064;2024-03-25T02:36:30;95634.34;;;3.92;nan
34328;BME280;20588;48.840;10.064;2024-03-25T02:38:58;95633.72;;;3.90;nan
34328;BME280;20588;48.840;10.064;2024-03-25T02:41:24;95631.78;;;3.99;nan
34328;BME280;20588;48.840;10.064;2024-03-25T02:43:51;95634.91;;;3.88;nan
34328;BME280;20588;48.840;10.064;2024-03-25T02:46:17;95637.22;;;3.83;nan
34328;BME280;20588;48.840;10.064;2024-03-25T02:48:45;95638.41;;;3.80;nan
34328;BME280;20588;48.840;10.064;2024-03-25T02:51:11;95648.19;;;3.83;nan
34328;BME280;20588;48.840;10.064;2024-03-25T02:53:37;95651.31;;;3.85;nan
34328;BME280;20588;48.840;10.064;2024-03-25T02:56:03;95650.19;;;3.88;nan
34328;BME280;20588;48.840;10.064;2024-03-25T02:58:29;95650.94;;;3.88;nan
34328;BME280;20588;48.840;10.064;2024-03-25T03:00:55;95658.56;;;3.88;nan
34328;BME280;20588;48.840;10.064;2024-03-25T03:03:21;95653.28;;;3.90;nan
34328;BME280;20588;48.840;10.064;2024-03-25T03:05:48;95646.06;;;3.93;nan
34328;BME280;20588;48.840;10.064;2024-03-25T03:08:14;95644.13;;;3.95;nan
34328;BME280;20588;48.840;10.064;2024-03-25T03:10:40;95658.41;;;3.96;nan
34328;BME280;20588;48.840;10.064;2024-03-25T03:13:06;95651.00;;;4.01;nan
34328;BME280;20588;48.840;10.064;2024-03-25T03:15:32;95652.34;;;3.97;nan
34328;BME280;20588;48.840;10.064;2024-03-25T03:17:58;95648.06;;;3.98;nan
34328;BME280;20588;48.840;10.064;2024-03-25T03:20:24;95647.84;;;3.99;nan
34328;BME280;20588;48.840;10.064;2024-03-25T03:22:50;95649.41;;;4.00;nan
34328;BME280;20588;48.840;10.064;2024-03-25T03:25:16;95648.09;;;4.04;nan
34328;BME280;20588;48.840;10.064;2024-03-25T03:27:42;95650.81;;;4.09;nan
34328;BME280;20588;48.840;10.064;2024-03-25T03:30:08;95649.88;;;4.17;nan
34328;BME280;20588;48.840;10.064;2024-03-25T03:32:35;95640.84;;;4.14;nan
34328;BME280;20588;48.840;10.064;2024-03-25T03:35:01;95646.34;;;4.18;nan
34328;BME280;20588;48.840;10.064;2024-03-25T03:37:27;95653.19;;;4.17;nan
34328;BME280;20588;48.840;10.064;2024-03-25T03:39:53;95655.34;;;4.14;nan
34328;BME280;20588;48.840;10.064;2024-03-25T03:42:19;95641.84;;;4.13;nan
34328;BME280;20588;48.840;10.064;2024-03-25T03:44:45;95651.84;;;4.15;nan
34328;BME280;20588;48.840;10.064;2024-03-25T03:47:11;95651.03;;;4.14;nan
34328;BME280;20588;48.840;10.064;2024-03-25T03:49:37;95645.56;;;4.17;nan
34328;BME280;20588;48.840;10.064;2024-03-25T03:52:03;95649.88;;;4.17;nan
34328;BME280;20588;48.840;10.064;2024-03-25T03:54:29;95648.09;;;4.17;nan
34328;BME280;20588;48.840;10.064;2024-03-25T03:56:55;95649.47;;;4.20;nan
34328;BME280;20588;48.840;10.064;2024-03-25T03:59:21;95652.81;;;4.20;nan
34328;BME280;20588;48.840;10.064;2024-03-25T04:01:47;95659.09;;;4.24;nan
34328;BME280;20588;48.840;10.064;2024-03-25T04:04:14;95660.66;;;4.25;nan
34328;BME280;20588;48.840;10.064;2024-03-25T04:06:40;95657.94;;;4.27;nan
34328;BME280;20588;48.840;10.064;2024-03-25T04:09:07;95663.22;;;4.25;nan
34328;BME280;20588;48.840;10.064;2024-03-25T04:11:38;95657.34;;;4.25;nan
34328;BME280;20588;48.840;10.064;2024-03-25T04:14:04;95661.63;;;4.24;nan
34328;BME280;20588;48.840;10.064;2024-03-25T04:16:30;95657.34;;;4.25;nan
34328;BME280;20588;48.840;10.064;2024-03-25T04:18:57;95659.28;;;4.23;nan
34328;BME280;20588;48.840;10.064;2024-03-25T04:21:23;95659.69;;;4.26;nan
34328;BME280;20588;48.840;10.064;2024-03-25T04:23:49;95669.06;;;4.26;nan
34328;BME280;20588;48.840;10.064;2024-03-25T04:26:16;95665.16;;;4.23;nan
34328;BME280;20588;48.840;10.064;2024-03-25T04:28:42;95666.34;;;4.21;nan
34328;BME280;20588;48.840;10.064;2024-03-25T04:31:08;95666.34;;;4.21;nan
34328;BME280;20588;48.840;10.064;2024-03-25T04:33:35;95672.59;;;4.25;nan
34328;BME280;20588;48.840;10.064;2024-03-25T04:36:01;95673.97;;;4.27;nan
34328;BME280;20588;48.840;10.064;2024-03-25T04:38:27;95672.81;;;4.30;nan
34328;BME280;20588;48.840;10.064;2024-03-25T04:40:53;95673.78;;;4.29;nan
34328;BME280;20588;48.840;10.064;2024-03-25T04:43:20;95664.59;;;4.34;nan
34328;BME280;20588;48.840;10.064;2024-03-25T04:45:46;95668.91;;;4.34;nan
34328;BME280;20588;48.840;10.064;2024-03-25T04:48:13;95664.59;;;4.34;nan
34328;BME280;20588;48.840;10.064;2024-03-25T04:50:39;95666.97;;;4.36;nan
34328;BME280;20588;48.840;10.064;2024-03-25T04:53:05;95672.63;;;4.38;nan
34328;BME280;20588;48.840;10.064;2024-03-25T04:55:31;95680.47;;;4.36;nan
34328;BME280;20588;48.840;10.064;2024-03-25T04:57:57;95677.91;;;4.36;nan
34328;BME280;20588;48.840;10.064;2024-03-25T05:00:23;95684.38;;;4.32;nan
34328;BME280;20588;48.840;10.064;2024-03-25T05:02:49;95680.84;;;4.33;nan
34328;BME280;20588;48.840;10.064;2024-03-25T05:05:15;95681.63;;;4.34;nan
34328;BME280;20588;48.840;10.064;2024-03-25T05:07:41;95675.56;;;4.35;nan
34328;BME280;20588;48.840;10.064;2024-03-25T05:10:08;95679.09;;;4.34;nan
34328;BME280;20588;48.840;10.064;2024-03-25T05:12:34;95678.50;;;4.38;nan
34328;BME280;20588;48.840;10.064;2024-03-25T05:15:00;95676.53;;;4.34;nan
34328;BME280;20588;48.840;10.064;2024-03-25T05:17:26;95675.75;;;4.33;nan
34328;BME280;20588;48.840;10.064;2024-03-25T05:19:52;95675.94;;;4.32;nan
34328;BME280;20588;48.840;10.064;2024-03-25T05:22:19;95680.06;;;4.26;nan
34328;BME280;20588;48.840;10.064;2024-03-25T05:24:45;95688.06;;;4.23;nan
34328;BME280;20588;48.840;10.064;2024-03-25T05:27:11;95693.34;;;4.22;nan
34328;BME280;20588;48.840;10.064;2024-03-25T05:29:37;95692.19;;;4.18;nan
34328;BME280;20588;48.840;10.064;2024-03-25T05:32:03;95701.56;;;4.17;nan
34328;BME280;20588;48.840;10.064;2024-03-25T05:34:30;95705.84;;;4.17;nan
34328;BME280;20588;48.840;10.064;2024-03-25T05:36:57;95706.66;;;4.17;nan
34328;BME280;20588;48.840;10.064;2024-03-25T05:39:23;95707.44;;;4.24;nan
34328;BME280;20588;48.840;10.064;2024-03-25T05:41:49;95699.25;;;4.29;nan
34328;BME280;20588;48.840;10.064;2024-03-25T05:44:16;95700.25;;;4.34;nan
34328;BME280;20588;48.840;10.064;2024-03-25T05:46:42;95698.53;;;4.48;nan
34328;BME280;20588;48.840;10.064;2024-03-25T05:49:08;95702.84;;;4.54;nan
34328;BME280;20588;48.840;10.064;2024-03-25T05:51:34;95706.59;;;4.64;nan
34328;BME280;20588;48.840;10.064;2024-03-25T05:54:00;95698.78;;;4.79;nan
34328;BME280;20588;48.840;10.064;2024-03-25T05:56:27;95699.19;;;4.89;nan
34328;BME280;20588;48.840;10.064;2024-03-25T05:58:57;95694.88;;;5.02;nan
34328;BME280;20588;48.840;10.064;2024-03-25T06:01:23;95697.44;;;5.15;nan
34328;BME280;20588;48.840;10.064;2024-03-25T06:03:50;95700.19;;;5.27;nan
34328;BME280;20588;48.840;10.064;2024-03-25T06:06:16;95704.69;;;5.31;nan
34328;BME280;20588;48.840;10.064;2024-03-25T06:08:42;95697.41;;;5.35;nan
34328;BME280;20588;48.840;10.064;2024-03-25T06:11:08;95706.25;;;5.39;nan
34328;BME280;20588;48.840;10.064;2024-03-25T06:13:34;95694.78;;;5.81;nan
34328;BME280;20588;48.840;10.064;2024-03-25T06:16:00;95698.72;;;6.78;nan
34328;BME280;20588;48.840;10.064;2024-03-25T06:18:26;95694.66;;;7.19;nan
34328;BME280;20588;48.840;10.064;2024-03-25T06:20:52;95697.91;;;7.08;nan
34328;BME280;20588;48.840;10.064;2024-03-25T06:23:28;95695.91;;;6.86;nan
34328;BME280;20588;48.840;10.064;2024-03-25T06:25:55;95690.34;;;6.64;nan
34328;BME280;20588;48.840;10.064;2024-03-25T06:28:22;95688.84;;;6.50;nan
34328;BME280;20588;48.840;10.064;2024-03-25T06:30:49;95698.25;;;6.50;nan
34328;BME280;20588;48.840;10.064;2024-03-25T06:33:34;95693.56;;;6.47;nan
34328;BME280;20588;48.840;10.064;2024-03-25T06:36:19;95701.47;;;6.39;nan
34328;BME280;20588;48.840;10.064;2024-03-25T06:38:46;95693.81;;;6.39;nan
34328;BME280;20588;48.840;10.064;2024-03-25T06:41:12;95696.31;;;6.45;nan
34328;BME280;20588;48.840;10.064;2024-03-25T06:43:39;95695.28;;;6.59;nan
34328;BME280;20588;48.840;10.064;2024-03-25T06:46:05;95695.72;;;6.81;nan
34328;BME280;20588;48.840;10.064;2024-03-25T06:48:32;95683.88;;;6.86;nan
34328;BME280;20588;48.840;10.064;2024-03-25T06:50:59;95692.72;;;6.90;nan
34328;BME280;20588;48.840;10.064;2024-03-25T06:53:25;95688.50;;;7.02;nan
34328;BME280;20588;48.840;10.064;2024-03-25T06:55:55;95698.53;;;7.04;nan
34328;BME280;20588;48.840;10.064;2024-03-25T06:58:22;95692.25;;;7.00;nan
34328;BME280;20588;48.840;10.064;2024-03-25T07:00:49;95703.91;;;6.96;nan
34328;BME280;20588;48.840;10.064;2024-03-25T07:03:16;95705.44;;;6.97;nan
34328;BME280;20588;48.840;10.064;2024-03-25T07:05:45;95709.41;;;6.93;nan
34328;BME280;20588;48.840;10.064;2024-03-25T07:08:11;95714.56;;;6.86;nan
34328;BME280;20588;48.840;10.064;2024-03-25T07:10:37;95716.78;;;6.83;nan
34328;BME280;20588;48.840;10.064;2024-03-25T07:13:04;95710.06;;;6.82;nan
34328;BME280;20588;48.840;10.064;2024-03-25T07:15:31;95709.81;;;6.96;nan
34328;BME280;20588;48.840;10.064;2024-03-25T07:17:57;95707.31;;;7.14;nan
34328;BME280;20588;48.840;10.064;2024-03-25T07:20:23;95714.81;;;7.34;nan
34328;BME280;20588;48.840;10.064;2024-03-25T07:22:50;95714.28;;;7.50;nan
34328;BME280;20588;48.840;10.064;2024-03-25T07:25:16;95712.75;;;7.67;nan
34328;BME280;20588;48.840;10.064;2024-03-25T07:27:42;95720.44;;;7.85;nan
34328;BME280;20588;48.840;10.064;2024-03-25T07:30:08;95711.91;;;7.91;nan
34328;BME280;20588;48.840;10.064;2024-03-25T07:32:35;95717.88;;;8.21;nan
34328;BME280;20588;48.840;10.064;2024-03-25T07:35:01;95720.78;;;8.61;nan
34328;BME280;20588;48.840;10.064;2024-03-25T07:37:27;95716.13;;;8.69;nan
34328;BME280;20588;48.840;10.064;2024-03-25T07:39:53;95716.97;;;8.81;nan
34328;BME280;20588;48.840;10.064;2024-03-25T07:42:19;95720.09;;;8.83;nan
34328;BME280;20588;48.840;10.064;2024-03-25T07:44:45;95720.31;;;8.82;nan
34328;BME280;20588;48.840;10.064;2024-03-25T07:47:11;95716.44;;;8.91;nan
34328;BME280;20588;48.840;10.064;2024-03-25T07:49:37;95714.22;;;8.94;nan
34328;BME280;20588;48.840;10.064;2024-03-25T07:52:05;95713.66;;;8.92;nan
34328;BME280;20588;48.840;10.064;2024-03-25T07:54:32;95721.09;;;8.82;nan
34328;BME280;20588;48.840;10.064;2024-03-25T07:56:58;95727.31;;;8.75;nan
34328;BME280;20588;48.840;10.064;2024-03-25T07:59:24;95731.66;;;8.74;nan
34328;BME280;20588;48.840;10.064;2024-03-25T08:01:50;95735.56;;;8.77;nan
34328;BME280;20588;48.840;10.064;2024-03-25T08:04:16;95735.84;;;8.87;nan
34328;BME280;20588;48.840;10.064;2024-03-25T08:06:42;95729.97;;;8.98;nan
34328;BME280;20588;48.840;10.064;2024-03-25T08:09:08;95737.25;;;9.12;nan
34328;BME280;20588;48.840;10.064;2024-03-25T08:11:39;95732.03;;;9.31;nan
34328;BME280;20588;48.840;10.064;2024-03-25T08:14:05;95733.63;;;9.55;nan
34328;BME280;20588;48.840;10.064;2024-03-25T08:16:31;95737.88;;;9.84;nan
34328;BME280;20588;48.840;10.064;2024-03-25T08:18:57;95736.72;;;10.03;nan
34328;BME280;20588;48.840;10.064;2024-03-25T08:21:23;95744.94;;;10.11;nan
34328;BME280;20588;48.840;10.064;2024-03-25T08:23:49;95745.81;;;10.17;nan
34328;BME280;20588;48.840;10.064;2024-03-25T08:26:17;95743.66;;;10.25;nan
34328;BME280;20588;48.840;10.064;2024-03-25T08:28:43;95740.50;;;10.35;nan
34328;BME280;20588;48.840;10.064;2024-03-25T08:31:09;95733.66;;;10.52;nan
34328;BME280;20588;48.840;10.064;2024-03-25T08:33:36;95726.72;;;11.42;nan
34328;BME280;20588;48.840;10.064;2024-03-25T08:36:02;95719.59;;;11.82;nan
34328;BME280;20588;48.840;10.064;2024-03-25T08:38:29;95722.53;;;12.28;nan
34328;BME280;20588;48.840;10.064;2024-03-25T08:40:55;95716.56;;;13.51;nan
34328;BME280;20588;48.840;10.064;2024-03-25T08:43:21;95719.34;;;15.19;nan
34328;BME280;20588;48.840;10.064;2024-03-25T08:45:47;95712.19;;;17.71;nan
34328;BME280;20588;48.840;10.064;2024-03-25T08:48:13;95703.91;;;19.56;nan
34328;BME280;20588;48.840;10.064;2024-03-25T08:50:39;95673.00;;;20.85;nan
34328;BME280;20588;48.840;10.064;2024-03-25T08:53:05;95706.22;;;23.29;nan
34328;BME280;20588;48.840;10.064;2024-03-25T08:55:31;95698.97;;;25.02;nan
34328;BME280;20588;48.840;10.064;2024-03-25T08:57:58;95693.66;;;26.32;nan
34328;BME280;20588;48.840;10.064;2024-03-25T09:00:29;95692.56;;;26.82;nan
34328;BME280;20588;48.840;10.064;2024-03-25T09:02:55;95687.72;;;25.67;nan
34328;BME280;20588;48.840;10.064;2024-03-25T09:05:22;95688.09;;;24.25;nan
34328;BME280;20588;48.840;10.064;2024-03-25T09:07:51;95686.06;;;23.67;nan
34328;BME280;20588;48.840;10.064;2024-03-25T09:10:20;95683.25;;;23.81;nan
34328;BME280;20588;48.840;10.064;2024-03-25T09:13:05;95674.38;;;24.11;nan
34328;BME280;20588;48.840;10.064;2024-03-25T09:15:31;95676.03;;;24.15;nan
34328;BME280;20588;48.840;10.064;2024-03-25T09:17:57;95665.59;;;23.81;nan
34328;BME280;20588;48.840;10.064;2024-03-25T09:20:23;95673.41;;;22.67;nan
34328;BME280;20588;48.840;10.064;2024-03-25T09:22:50;95672.41;;;21.98;nan
34328;BME280;20588;48.840;10.064;2024-03-25T09:25:16;95677.28;;;21.38;nan
34328;BME280;20588;48.840;10.064;2024-03-25T09:27:49;95658.53;;;21.01;nan
34328;BME280;20588;48.840;10.064;2024-03-25T09:30:16;95656.59;;;20.57;nan
34328;BME280;20588;48.840;10.064;2024-03-25T09:32:44;95642.88;;;20.25;nan
34328;BME280;20588;48.840;10.064;2024-03-25T09:35:10;95644.47;;;20.48;nan
34328;BME280;20588;48.840;10.064;2024-03-25T09:37:36;95645.94;;;21.56;nan
34328;BME280;20588;48.840;10.064;2024-03-25T09:40:03;95632.72;;;22.22;nan
34328;BME280;20588;48.840;10.064;2024-03-25T09:42:49;95642.66;;;22.67;nan
34328;BME280;20588;48.840;10.064;2024-03-25T09:45:19;95634.69;;;23.06;nan
34328;BME280;20588;48.840;10.064;2024-03-25T09:47:48;95636.00;;;23.64;nan
34328;BME280;20588;48.840;10.064;2024-03-25T09:50:15;95629.41;;;23.87;nan
34328;BME280;20588;48.840;10.064;2024-03-25T09:52:45;95625.16;;;24.11;nan
34328;BME280;20588;48.840;10.064;2024-03-25T09:55:12;95628.06;;;24.47;nan
34328;BME280;20588;48.840;10.064;2024-03-25T09:57:38;95630.69;;;24.18;nan
34328;BME280;20588;48.840;10.064;2024-03-25T10:00:07;95625.69;;;24.25;nan
34328;BME280;20588;48.840;10.064;2024-03-25T10:02:43;95627.31;;;24.67;nan
34328;BME280;20588;48.840;10.064;2024-03-25T10:05:09;95629.22;;;25.20;nan
34328;BME280;20588;48.840;10.064;2024-03-25T10:07:36;95625.69;;;25.16;nan
34328;BME280;20588;48.840;10.064;2024-03-25T10:10:05;95626.78;;;25.36;nan
34328;BME280;20588;48.840;10.064;2024-03-25T10:12:32;95612.94;;;25.39;nan
34328;BME280;20588;48.840;10.064;2024-03-25T10:14:58;95615.16;;;25.16;nan
34328;BME280;20588;48.840;10.064;2024-03-25T10:17:25;95608.66;;;23.94;nan
34328;BME280;20588;48.840;10.064;2024-03-25T10:19:53;95604.81;;;23.45;nan
34328;BME280;20588;48.840;10.064;2024-03-25T10:22:19;95601.44;;;23.82;nan
34328;BME280;20588;48.840;10.064;2024-03-25T10:24:46;95599.75;;;23.14;nan
34328;BME280;20588;48.840;10.064;2024-03-25T10:27:19;95592.41;;;22.09;nan
34328;BME280;20588;48.840;10.064;2024-03-25T10:29:48;95593.91;;;21.93;nan
34328;BME280;20588;48.840;10.064;2024-03-25T10:32:15;95587.13;;;22.82;nan
34328;BME280;20588;48.840;10.064;2024-03-25T10:34:41;95586.00;;;23.35;nan
34328;BME280;20588;48.840;10.064;2024-03-25T10:37:11;95572.22;;;23.84;nan
34328;BME280;20588;48.840;10.064;2024-03-25T10:39:49;95578.31;;;24.05;nan
34328;BME280;20588;48.840;10.064;2024-03-25T10:42:20;95568.19;;;23.40;nan
34328;BME280;20588;48.840;10.064;2024-03-25T10:44:48;95564.88;;;22.97;nan
34328;BME280;20588;48.840;10.064;2024-03-25T10:47:34;95562.06;;;23.28;nan
34328;BME280;20588;48.840;10.064;2024-03-25T10:50:07;95557.53;;;23.45;nan
34328;BME280;20588;48.840;10.064;2024-03-25T10:52:37;95545.06;;;23.71;nan
34328;BME280;20588;48.840;10.064;2024-03-25T10:55:03;95549.63;;;23.83;nan
34328;BME280;20588;48.840;10.064;2024-03-25T10:57:29;95543.22;;;23.72;nan
34328;BME280;20588;48.840;10.064;2024-03-25T10:59:56;95534.13;;;23.98;nan
34328;BME280;20588;48.840;10.064;2024-03-25T11:02:23;95518.31;;;24.27;nan
34328;BME280;20588;48.840;10.064;2024-03-25T11:04:50;95520.72;;;24.73;nan
34328;BME280;20588;48.840;10.064;2024-03-25T11:07:17;95520.31;;;25.16;nan
34328;BME280;20588;48.840;10.064;2024-03-25T11:09:43;95518.94;;;25.31;nan
34328;BME280;20588;48.840;10.064;2024-03-25T11:12:13;95523.84;;;25.20;nan
34328;BME280;20588;48.840;10.064;2024-03-25T11:14:39;95520.16;;;25.45;nan
34328;BME280;20588;48.840;10.064;2024-03-25T11:17:16;95504.38;;;25.57;nan
34328;BME280;20588;48.840;10.064;2024-03-25T11:19:42;95506.09;;;25.29;nan
34328;BME280;20588;48.840;10.064;2024-03-25T11:22:10;95503.69;;;25.36;nan
34328;BME280;20588;48.840;10.064;2024-03-25T11:24:37;95505.56;;;25.60;nan
34328;BME280;20588;48.840;10.064;2024-03-25T11:27:07;95512.59;;;25.56;nan
34328;BME280;20588;48.840;10.064;2024-03-25T11:29:33;95505.03;;;25.66;nan
34328;BME280;20588;48.840;10.064;2024-03-25T11:32:04;95507.00;;;26.05;nan
34328;BME280;20588;48.840;10.064;2024-03-25T11:34:31;95501.28;;;26.03;nan
34328;BME280;20588;48.840;10.064;2024-03-25T11:36:58;95498.84;;;26.10;nan
34328;BME280;20588;48.840;10.064;2024-03-25T11:39:24;95495.94;;;26.39;nan
34328;BME280;20588;48.840;10.064;2024-03-25T11:41:54;95489.97;;;26.42;nan
34328;BME280;20588;48.840;10.064;2024-03-25T11:44:21;95485.81;;;26.41;nan
34328;BME280;20588;48.840;10.064;2024-03-25T11:46:50;95484.09;;;25.25;nan
34328;BME280;20588;48.840;10.064;2024-03-25T11:49:21;95483.09;;;25.06;nan
34328;BME280;20588;48.840;10.064;2024-03-25T11:51:47;95483.88;;;25.18;nan
34328;BME280;20588;48.840;10.064;2024-03-25T11:54:14;95478.38;;;24.66;nan
34328;BME280;20588;48.840;10.064;2024-03-25T11:56:41;95479.97;;;24.92;nan
34328;BME280;20588;48.840;10.064;2024-03-25T11:59:08;95476.03;;;25.42;nan
34328;BME280;20588;48.840;10.064;2024-03-25T12:01:36;95466.84;;;25.04;nan
34328;BME280;20588;48.840;10.064;2024-03-25T12:04:16;95463.72;;;24.77;nan
34328;BME280;20588;48.840;10.064;2024-03-25T12:06:42;95457.53;;;25.06;nan
34328;BME280;20588;48.840;10.064;2024-03-25T12:09:08;95463.47;;;25.27;nan
34328;BME280;20588;48.840;10.064;2024-03-25T12:11:53;95447.56;;;25.60;nan
34328;BME280;20588;48.840;10.064;2024-03-25T12:14:22;95456.47;;;25.55;nan
34328;BME280;20588;48.840;10.064;2024-03-25T12:16:49;95443.97;;;24.71;nan
34328;BME280;20588;48.840;10.064;2024-03-25T12:19:16;95430.38;;;23.67;nan
34328;BME280;20588;48.840;10.064;2024-03-25T12:21:44;95430.84;;;23.69;nan
34328;BME280;20588;48.840;10.064;2024-03-25T12:24:11;95427.28;;;23.65;nan
34328;BME280;20588;48.840;10.064;2024-03-25T12:26:37;95425.47;;;22.90;nan
34328;BME280;20588;48.840;10.064;2024-03-25T12:29:03;95422.63;;;21.16;nan
34328;BME280;20588;48.840;10.064;2024-03-25T12:31:30;95401.69;;;20.24;nan
34328;BME280;20588;48.840;10.064;2024-03-25T12:33:56;95402.41;;;20.03;nan
34328;BME280;20588;48.840;10.064;2024-03-25T12:36:22;95399.44;;;18.52;nan
34328;BME280;20588;48.840;10.064;2024-03-25T12:38:58;95385.28;;;18.07;nan
34328;BME280;20588;48.840;10.064;2024-03-25T12:41:24;95383.16;;;18.60;nan
34328;BME280;20588;48.840;10.064;2024-03-25T12:43:51;95376.22;;;19.36;nan
34328;BME280;20588;48.840;10.064;2024-03-25T12:46:17;95368.34;;;19.86;nan
34328;BME280;20588;48.840;10.064;2024-03-25T12:48:43;95367.91;;;19.92;nan
34328;BME280;20588;48.840;10.064;2024-03-25T12:51:14;95358.41;;;19.52;nan
34328;BME280;20588;48.840;10.064;2024-03-25T12:53:41;95365.97;;;18.72;nan
34328;BME280;20588;48.840;10.064;2024-03-25T12:56:07;95360.44;;;17.64;nan
34328;BME280;20588;48.840;10.064;2024-03-25T12:58:34;95354.97;;;16.58;nan
34328;BME280;20588;48.840;10.064;2024-03-25T13:01:00;95353.16;;;16.30;nan
34328;BME280;20588;48.840;10.064;2024-03-25T13:03:26;95344.91;;;16.51;nan
34328;BME280;20588;48.840;10.064;2024-03-25T13:05:52;95345.94;;;16.74;nan
34328;BME280;20588;48.840;10.064;2024-03-25T13:08:20;95338.94;;;16.51;nan
34328;BME280;20588;48.840;10.064;2024-03-25T13:10:46;95334.50;;;16.22;nan
34328;BME280;20588;48.840;10.064;2024-03-25T13:13:13;95328.94;;;16.05;nan
34328;BME280;20588;48.840;10.064;2024-03-25T13:15:39;95331.91;;;16.22;nan